Time;durP1;ratioP1;P1;durP2;ratioP2;P2;SDS_P1;SDS_P2;PMS_P1;PMS_P2;Temp;Humidity;BMP_temperature;BMP_pressure;BME280_temperature;BME280_humidity;BME280_pressure;Samples;Min_cycle;Max_cycle;Signal;HPM_P1;HPM_P2
2022/08/20 00:00:47;;;;;;;;;3.00;1.50;;;;;19.96;58.67;101506.22;5098486;27;46752;-54
2022/08/20 00:03:34;;;;;;;;;3.50;2.00;;;;;19.97;58.57;101509.75;5098573;27;45364;-54
2022/08/20 00:06:11;;;;;;;;;3.00;1.50;;;;;19.95;58.42;101504.53;5098567;27;45382;-54
2022/08/20 00:08:38;;;;;;;;;4.00;3.00;;;;;19.90;58.42;101501.59;5098927;27;45410;-53
2022/08/20 00:11:05;;;;;;;;;5.00;1.75;;;;;19.88;58.72;101500.91;5098091;27;47207;-53
2022/08/20 00:13:36;;;;;;;;;3.00;2.00;;;;;19.86;58.79;101500.28;5079687;27;45299;-52
2022/08/20 00:16:02;;;;;;;;;2.00;2.00;;;;;19.82;58.31;101496.28;5098604;27;45472;-54
2022/08/20 00:18:28;;;;;;;;;5.25;2.00;;;;;19.81;58.32;101494.63;5080438;27;45889;-54
2022/08/20 00:20:55;;;;;;;;;4.75;1.75;;;;;19.78;58.75;101500.38;5098140;27;45458;-54
2022/08/20 00:23:21;;;;;;;;;6.75;3.00;;;;;19.76;58.69;101494.31;5079704;27;45373;-54
2022/08/20 00:25:48;;;;;;;;;2.25;0.75;;;;;19.73;58.57;101486.63;5098226;27;45345;-53
2022/08/20 00:28:15;;;;;;;;;3.00;3.00;;;;;19.72;58.89;101493.91;5098309;27;45490;-55
2022/08/20 00:30:43;;;;;;;;;5.50;3.00;;;;;19.69;58.96;101499.66;5098289;27;45305;-55
2022/08/20 00:33:13;;;;;;;;;6.00;2.50;;;;;19.55;58.88;101481.56;5097986;27;45530;-55
2022/08/20 00:35:42;;;;;;;;;5.50;2.00;;;;;19.52;59.04;101482.81;5098126;27;45519;-52
2022/08/20 00:38:07;;;;;;;;;1.75;1.50;;;;;19.60;59.08;101503.47;5097036;27;45242;-54
2022/08/20 00:40:51;;;;;;;;;3.75;2.50;;;;;19.53;58.97;101500.66;5096206;27;46094;-54
2022/08/20 00:43:33;;;;;;;;;4.50;2.00;;;;;19.53;59.25;101500.66;5096442;27;45250;-55
2022/08/20 00:46:00;;;;;;;;;6.00;2.75;;;;;19.51;59.38;101499.16;5078092;27;45406;-54
2022/08/20 00:48:30;;;;;;;;;3.25;1.00;;;;;19.47;59.49;101504.13;5096724;27;45455;-54
2022/08/20 00:51:08;;;;;;;;;2.00;2.00;;;;;19.36;59.56;101483.00;5095835;27;46349;-53
2022/08/20 00:53:34;;;;;;;;;3.75;3.00;;;;;19.45;59.60;101506.97;5096182;27;45365;-53
2022/08/20 00:56:00;;;;;;;;;1.75;1.75;;;;;19.44;59.63;101501.78;5096280;27;45299;-55
2022/08/20 00:58:27;;;;;;;;;2.00;2.00;;;;;19.42;59.64;101499.28;5096578;27;45437;-54
2022/08/20 01:00:53;;;;;;;;;3.25;1.25;;;;;19.33;59.43;101480.66;5096084;27;45616;-54
2022/08/20 01:03:20;;;;;;;;;2.50;1.50;;;;;19.41;59.65;101502.97;5096065;27;45372;-53
2022/08/20 01:05:47;;;;;;;;;4.75;2.75;;;;;19.39;59.81;101496.13;5096091;27;45431;-53
2022/08/20 01:08:16;;;;;;;;;3.25;1.50;;;;;19.37;59.71;101490.88;5096606;27;45420;-54
2022/08/20 01:10:43;;;;;;;;;4.00;3.00;;;;;19.38;59.97;101499.81;5096011;27;46250;-54
2022/08/20 01:13:14;;;;;;;;;4.50;4.50;;;;;19.38;60.49;101502.50;5095666;27;45373;-54
2022/08/20 01:15:44;;;;;;;;;3.00;1.75;;;;;19.38;59.75;101497.13;5094701;27;45218;-55
2022/08/20 01:18:16;;;;;;;;;3.75;2.00;;;;;19.36;59.99;101496.47;5096201;27;45284;-55
2022/08/20 01:21:03;;;;;;;;;2.75;2.75;;;;;19.36;60.25;101496.47;5095941;27;46074;-56
2022/08/20 01:23:33;;;;;;;;;6.00;3.00;;;;;19.36;60.16;101491.09;5093716;27;45413;-54
2022/08/20 01:26:07;;;;;;;;;6.25;3.25;;;;;19.36;60.17;101491.09;5094582;27;45255;-54
2022/08/20 01:28:57;;;;;;;;;6.75;3.50;;;;;19.34;60.30;101490.41;5096249;27;45277;-55
2022/08/20 01:31:27;;;;;;;;;4.25;2.00;;;;;19.27;60.45;101482.25;5095643;27;46120;-53
2022/08/20 01:33:54;;;;;;;;;4.00;3.00;;;;;19.28;60.72;101485.78;5095003;27;45323;-53
2022/08/20 01:36:24;;;;;;;;;4.00;4.00;;;;;19.27;60.61;101497.59;5054312;27;1160312;-54
2022/08/20 01:38:50;;;;;;;;;4.25;2.50;;;;;19.27;60.99;101503.00;5097701;27;45489;-55
2022/08/20 01:41:21;;;;;;;;;6.75;3.25;;;;;19.25;60.92;101500.47;5096973;27;46074;-55
2022/08/20 01:43:55;;;;;;;;;3.00;1.75;;;;;19.24;60.83;101508.75;5097209;27;45406;-54
2022/08/20 01:46:24;;;;;;;;;7.50;4.50;;;;;19.05;61.11;101480.47;5097370;27;45200;-55
2022/08/20 01:48:51;;;;;;;;;4.75;3.00;;;;;19.11;61.52;101495.91;5097406;27;45439;-55
2022/08/20 01:51:21;;;;;;;;;5.00;3.00;;;;;19.21;61.46;101518.03;5096897;27;47205;-55
2022/08/20 01:53:50;;;;;;;;;4.00;2.50;;;;;19.17;60.96;101514.03;5096972;27;45403;-53
2022/08/20 01:56:20;;;;;;;;;5.00;2.75;;;;;19.16;61.37;101524.00;5097106;27;45314;-57
2022/08/20 01:58:49;;;;;;;;;3.50;2.00;;;;;19.15;61.45;101521.50;5097128;27;45232;-55
2022/08/20 02:01:26;;;;;;;;;3.75;2.75;;;;;19.10;61.25;101522.03;5096770;27;47072;-55
2022/08/20 02:03:53;;;;;;;;;5.00;2.00;;;;;19.07;61.62;101522.41;5097015;27;45437;-53
2022/08/20 02:06:24;;;;;;;;;5.00;1.75;;;;;19.05;61.86;101518.22;5096546;27;45316;-54
2022/08/20 02:08:54;;;;;;;;;3.50;3.00;;;;;19.04;61.86;101517.38;5078834;27;45449;-54
2022/08/20 02:11:20;;;;;;;;;4.00;2.75;;;;;19.03;61.62;101526.47;5096642;27;46927;-55
2022/08/20 02:13:48;;;;;;;;;2.75;2.00;;;;;19.01;61.93;101525.00;5096795;27;45169;-55
2022/08/20 02:16:13;;;;;;;;;3.00;1.50;;;;;18.94;61.70;101525.72;5096963;27;45458;-55
2022/08/20 02:18:39;;;;;;;;;6.75;3.00;;;;;18.92;62.04;101527.78;5097097;27;45378;-53
2022/08/20 02:21:04;;;;;;;;;3.50;3.00;;;;;18.90;61.92;101532.50;5096675;27;46329;-53
2022/08/20 02:23:30;;;;;;;;;5.00;2.00;;;;;18.88;61.87;101522.94;5097008;27;45492;-53
2022/08/20 02:25:56;;;;;;;;;5.25;1.00;;;;;18.85;62.10;101531.38;5096923;27;45631;-55
2022/08/20 02:28:21;;;;;;;;;3.75;2.25;;;;;18.79;61.99;101519.44;5097009;27;45421;-53
2022/08/20 02:30:51;;;;;;;;;4.75;2.00;;;;;18.81;62.26;101532.75;5096853;27;45432;-55
2022/08/20 02:33:19;;;;;;;;;2.50;1.00;;;;;18.76;62.11;101527.91;5096447;27;45354;-55
2022/08/20 02:35:47;;;;;;;;;4.25;2.75;;;;;18.79;62.01;101521.31;5098515;27;45372;-54
2022/08/20 02:38:14;;;;;;;;;4.50;1.50;;;;;18.77;62.40;101528.75;5099966;27;45497;-56
2022/08/20 02:40:42;;;;;;;;;4.50;2.00;;;;;18.77;62.30;101528.75;5099676;27;47109;-56
2022/08/20 02:43:08;;;;;;;;;11.50;3.75;;;;;18.73;62.26;101527.44;5081319;27;45352;-54
2022/08/20 02:45:36;;;;;;;;;5.00;3.50;;;;;18.75;62.16;101522.69;5098543;27;45370;-55
2022/08/20 02:48:02;;;;;;;;;2.25;1.50;;;;;18.74;62.43;101531.81;5100162;27;45310;-54
2022/08/20 02:50:29;;;;;;;;;4.50;2.00;;;;;18.68;62.48;101523.41;5099474;27;45580;-54
2022/08/20 02:52:54;;;;;;;;;3.50;2.50;;;;;18.55;62.33;101501.59;5099657;27;45395;-52
2022/08/20 02:55:21;;;;;;;;;6.00;4.00;;;;;18.68;62.47;101536.88;5099801;27;45393;-55
2022/08/20 02:57:46;;;;;;;;;7.25;2.75;;;;;18.65;62.50;101533.69;5099888;27;45438;-54
2022/08/20 03:00:17;;;;;;;;;5.00;2.75;;;;;18.62;62.33;101537.56;5099592;27;46105;-54
2022/08/20 03:02:44;;;;;;;;;3.00;2.00;;;;;18.47;62.67;101515.16;5099547;27;45451;-52
2022/08/20 03:05:11;;;;;;;;;2.50;2.50;;;;;18.55;62.75;101533.94;5099522;27;45268;-53
2022/08/20 03:07:55;;;;;;;;;3.00;3.00;;;;;18.55;62.47;101528.56;5099892;27;45281;-52
2022/08/20 03:10:40;;;;;;;;;1.75;1.75;;;;;18.53;62.53;101529.75;5099388;27;46383;-53
2022/08/20 03:13:11;;;;;;;;;5.25;2.25;;;;;18.43;63.17;101516.53;5099435;27;45182;-53
2022/08/20 03:15:36;;;;;;;;;4.50;3.00;;;;;18.50;63.23;101536.34;5098952;27;45350;-53
2022/08/20 03:18:02;;;;;;;;;2.00;2.00;;;;;18.48;63.31;101535.66;5099554;27;45373;-49
2022/08/20 03:20:28;;;;;;;;;3.75;3.75;;;;;18.48;63.29;101527.59;5099470;27;45313;-52
2022/08/20 03:22:54;;;;;;;;;3.25;3.25;;;;;18.46;63.38;101537.72;5099256;27;45353;-54
2022/08/20 03:25:20;;;;;;;;;5.75;2.50;;;;;18.40;63.59;101527.66;5099375;27;45281;-53
2022/08/20 03:27:46;;;;;;;;;6.25;3.50;;;;;18.40;63.67;101536.56;5081096;27;45300;-53
2022/08/20 03:30:14;;;;;;;;;4.50;2.25;;;;;18.38;64.12;101529.69;5098994;27;46044;-53
2022/08/20 03:32:40;;;;;;;;;3.75;2.00;;;;;18.35;63.81;101536.25;5099109;27;45324;-52
2022/08/20 03:35:08;;;;;;;;;4.00;3.00;;;;;18.34;64.02;101533.75;5099126;27;45363;-53
2022/08/20 03:37:34;;;;;;;;;3.50;2.00;;;;;18.29;64.39;101531.59;5099211;27;45321;-53
2022/08/20 03:40:02;;;;;;;;;6.00;1.00;;;;;18.31;64.36;101534.09;5098800;27;46136;-53
2022/08/20 03:42:27;;;;;;;;;5.00;4.75;;;;;18.27;64.40;101530.94;5098610;27;45644;-54
2022/08/20 03:44:53;;;;;;;;;4.25;2.25;;;;;18.28;64.47;101527.22;5099172;27;45356;-53
2022/08/20 03:47:19;;;;;;;;;5.00;2.00;;;;;18.26;64.48;101531.13;5097467;27;45339;-55
2022/08/20 03:49:45;;;;;;;;;6.00;2.75;;;;;18.24;64.40;101527.75;5098777;27;46065;-52
2022/08/20 03:52:11;;;;;;;;;3.50;2.00;;;;;18.24;64.29;101533.13;5098236;27;45599;-52
2022/08/20 03:54:36;;;;;;;;;2.00;2.00;;;;;18.21;64.80;101539.72;5098829;27;45338;-53
2022/08/20 03:57:02;;;;;;;;;4.00;2.25;;;;;18.20;64.54;101538.03;5099127;27;45348;-52
2022/08/20 03:59:30;;;;;;;;;8.00;3.75;;;;;18.20;64.78;101538.03;5098469;27;47060;-53
2022/08/20 04:01:56;;;;;;;;;3.75;3.00;;;;;18.18;64.53;101542.78;5098466;27;45408;-53
2022/08/20 04:04:21;;;;;;;;;4.50;3.50;;;;;18.16;64.76;101542.97;5098971;27;45325;-52
2022/08/20 04:06:46;;;;;;;;;4.00;2.00;;;;;18.10;65.03;101532.88;5098958;27;45331;-54
2022/08/20 04:09:13;;;;;;;;;3.00;3.00;;;;;18.03;64.74;101531.06;5098506;27;46151;-54
2022/08/20 04:11:42;;;;;;;;;5.00;2.00;;;;;18.09;64.75;101539.28;5098462;27;45197;-53
2022/08/20 04:14:08;;;;;;;;;5.00;2.50;;;;;18.06;64.84;101547.72;5098233;27;45342;-53
2022/08/20 04:16:34;;;;;;;;;7.00;4.75;;;;;18.10;64.76;101540.94;5098797;27;45491;-51
2022/08/20 04:18:59;;;;;;;;;2.00;2.00;;;;;18.09;64.72;101535.75;5098360;27;46150;-52
2022/08/20 04:21:25;;;;;;;;;4.67;3.00;;;;;18.07;64.94;101537.78;5097538;27;45378;-52
2022/08/20 04:23:51;;;;;;;;;3.00;3.00;;;;;18.06;65.03;101538.78;5098353;27;45210;-53
2022/08/20 04:26:16;;;;;;;;;4.00;2.00;;;;;18.03;65.08;101539.97;5098609;27;45420;-52
2022/08/20 04:28:42;;;;;;;;;4.00;4.00;;;;;18.01;64.49;101547.41;5097987;27;46152;-52
2022/08/20 04:31:07;;;;;;;;;3.00;2.00;;;;;17.99;64.78;101549.41;5098053;27;45468;-53
2022/08/20 04:33:32;;;;;;;;;4.33;3.00;;;;;17.98;64.97;101552.28;5098393;27;45216;-52
2022/08/20 04:36:01;;;;;;;;;3.50;2.25;;;;;17.94;64.62;101555.34;5098279;27;45464;-54
2022/08/20 04:38:28;;;;;;;;;4.00;4.00;;;;;17.94;64.97;101549.09;5097785;27;46120;-52
2022/08/20 04:40:57;;;;;;;;;2.67;2.67;;;;;17.92;64.64;101548.47;5097301;27;45364;-53
2022/08/20 04:43:34;;;;;;;;;2.00;2.00;;;;;17.86;64.74;101546.44;5098050;27;45372;-55
2022/08/20 04:46:04;;;;;;;;;3.00;2.00;;;;;17.88;64.91;101553.34;5098200;27;45395;-55
2022/08/20 04:48:30;;;;;;;;;4.00;2.00;;;;;17.88;65.07;101552.50;5097786;27;46188;-53
2022/08/20 04:50:56;;;;;;;;;2.33;2.00;;;;;17.86;64.89;101543.75;5097911;27;45223;-54
2022/08/20 04:53:23;;;;;;;;;5.00;3.00;;;;;17.86;64.75;101541.06;5097971;27;45242;-55
2022/08/20 04:55:51;;;;;;;;;2.75;2.75;;;;;17.84;65.06;101548.50;5098144;27;45520;-52
2022/08/20 04:58:21;;;;;;;;;2.33;2.33;;;;;17.85;64.96;101547.47;5097236;27;45550;-54
2022/08/20 05:00:49;;;;;;;;;6.00;4.00;;;;;17.85;65.10;101553.69;5097819;27;45239;-51
2022/08/20 05:03:16;;;;;;;;;3.00;2.00;;;;;17.85;64.95;101563.63;5097818;27;45425;-54
2022/08/20 05:05:43;;;;;;;;;6.00;3.00;;;;;17.85;65.12;101567.16;5097933;27;45346;-52
2022/08/20 05:08:11;;;;;;;;;6.00;1.67;;;;;17.85;64.83;101575.22;5097331;27;45213;-54
2022/08/20 05:10:37;;;;;;;;;5.67;3.00;;;;;17.83;64.83;101571.88;5097475;27;45380;-54
2022/08/20 05:13:03;;;;;;;;;5.75;2.25;;;;;17.84;64.93;101573.56;5097570;27;45293;-53
2022/08/20 05:15:28;;;;;;;;;2.67;2.00;;;;;17.85;65.14;101574.38;5097844;27;45462;-54
2022/08/20 05:17:56;;;;;;;;;3.50;2.50;;;;;17.87;64.94;101581.28;5097441;27;45395;-55
2022/08/20 05:20:22;;;;;;;;;7.33;3.67;;;;;17.76;64.84;101559.28;5097488;27;45455;-54
2022/08/20 05:22:47;;;;;;;;;2.50;2.50;;;;;17.85;64.68;101577.09;5097574;27;45298;-53
2022/08/20 05:25:13;;;;;;;;;4.33;3.00;;;;;17.88;64.53;101582.13;5097770;27;45381;-53
2022/08/20 05:27:40;;;;;;;;;4.75;3.50;;;;;17.84;64.64;101576.25;5097526;27;45468;-52
2022/08/20 05:30:09;;;;;;;;;3.50;2.50;;;;;17.83;64.56;101566.50;5097164;27;45442;-52
2022/08/20 05:32:36;;;;;;;;;7.75;2.00;;;;;17.89;64.44;101575.72;5097377;27;45315;-53
2022/08/20 05:35:08;;;;;;;;;5.00;2.00;;;;;17.92;64.43;101578.91;5097414;27;45268;-53
2022/08/20 05:37:39;;;;;;;;;4.25;2.00;;;;;17.92;64.34;101586.97;5096981;27;46271;-53
2022/08/20 05:40:12;;;;;;;;;3.00;3.00;;;;;17.94;64.37;101584.09;5097193;27;45368;-54
2022/08/20 05:42:37;;;;;;;;;3.75;2.00;;;;;17.98;64.25;101588.13;5097299;27;45248;-54
2022/08/20 05:45:04;;;;;;;;;4.50;2.00;;;;;18.00;64.19;101586.13;5097236;27;45403;-53
2022/08/20 05:47:30;;;;;;;;;1.75;1.75;;;;;17.90;64.30;101570.16;5096898;27;45381;-54
2022/08/20 05:49:55;;;;;;;;;2.00;2.00;;;;;18.05;64.12;101588.28;5097060;27;45313;-52
2022/08/20 05:52:21;;;;;;;;;2.25;2.25;;;;;18.08;64.04;101590.63;5097036;27;45307;-54
2022/08/20 05:54:46;;;;;;;;;4.50;3.75;;;;;18.11;64.14;101587.56;5097292;27;45468;-52
2022/08/20 05:57:12;;;;;;;;;7.25;4.00;;;;;18.13;64.15;101591.78;5096971;27;46114;-52
2022/08/20 05:59:38;;;;;;;;;4.25;2.50;;;;;18.16;64.18;101593.25;5096851;27;45442;-50
2022/08/20 06:04:23;;;;;;;;;3.75;3.00;;;;;18.19;63.95;101596.44;5097176;27;45353;-52
2022/08/20 06:04:49;;;;;;;;;4.00;3.00;;;;;18.23;63.92;101593.41;5096952;27;45469;-53
2022/08/20 06:07:15;;;;;;;;;2.75;2.50;;;;;18.23;63.91;101593.41;5096680;27;45351;-53
2022/08/20 06:09:41;;;;;;;;;5.50;3.00;;;;;18.31;63.69;101602.28;5097250;27;45390;-53
2022/08/20 06:12:08;;;;;;;;;4.25;1.75;;;;;18.36;63.80;101601.75;5100481;27;45348;-53
2022/08/20 06:14:34;;;;;;;;;4.25;2.25;;;;;18.38;63.69;101605.13;5100588;27;45478;-55
2022/08/20 06:17:08;;;;;;;;;7.25;3.50;;;;;18.40;63.50;101597.69;5099376;27;45355;-54
2022/08/20 06:19:35;;;;;;;;;4.00;2.75;;;;;18.42;63.41;101606.44;5100009;27;45610;-54
2022/08/20 06:22:01;;;;;;;;;3.25;3.25;;;;;18.46;63.41;101621.25;5100258;27;45328;-54
2022/08/20 06:24:27;;;;;;;;;3.25;3.25;;;;;18.47;63.28;101604.06;5100487;27;45475;-53
2022/08/20 06:27:02;;;;;;;;;2.50;2.50;;;;;18.46;63.11;101605.06;5100004;27;46156;-53
2022/08/20 06:29:28;;;;;;;;;5.25;3.75;;;;;18.53;63.06;101602.50;5099812;27;45301;-55
2022/08/20 06:31:55;;;;;;;;;5.00;3.00;;;;;18.56;62.99;101611.06;5100214;27;45510;-55
2022/08/20 06:34:21;;;;;;;;;3.75;3.75;;;;;18.59;62.98;101608.03;5100189;27;45379;-54
2022/08/20 06:36:46;;;;;;;;;6.00;3.00;;;;;18.54;62.66;101594.25;5099831;27;46086;-54
2022/08/20 06:39:13;;;;;;;;;5.67;4.00;;;;;18.61;62.86;101597.06;5099980;27;45425;-53
2022/08/20 06:41:38;;;;;;;;;7.50;4.00;;;;;18.67;62.36;101601.75;5100159;27;45511;-53
2022/08/20 06:44:06;;;;;;;;;5.50;3.00;;;;;18.78;62.48;101617.50;5100136;27;45433;-53
2022/08/20 06:46:35;;;;;;;;;6.00;4.00;;;;;18.76;62.32;101598.00;5100028;27;45299;-54
2022/08/20 06:49:02;;;;;;;;;3.00;3.00;;;;;18.86;62.34;101614.75;5099795;27;45547;-54
2022/08/20 06:51:28;;;;;;;;;5.00;3.00;;;;;18.90;62.02;101604.47;5100010;27;45513;-55
2022/08/20 06:53:54;;;;;;;;;9.25;4.25;;;;;18.99;62.11;101607.94;5099861;27;45283;-54
2022/08/20 06:56:20;;;;;;;;;5.00;3.25;;;;;19.03;62.08;101620.03;5099717;27;46384;-54
2022/08/20 06:58:45;;;;;;;;;2.00;2.00;;;;;19.14;61.85;101616.91;5099422;27;45462;-55
2022/08/20 07:01:12;;;;;;;;;4.50;4.50;;;;;19.24;61.60;101608.56;5099920;27;45424;-53
2022/08/20 07:03:39;;;;;;;;;4.75;3.25;;;;;19.42;61.38;101612.59;5099843;27;45428;-55
2022/08/20 07:06:05;;;;;;;;;5.00;4.50;;;;;19.64;61.05;101615.47;5099455;27;47189;-52
2022/08/20 07:08:31;;;;;;;;;5.50;2.50;;;;;19.98;60.07;101608.66;5099063;27;45376;-53
2022/08/20 07:10:58;;;;;;;;;9.50;3.25;;;;;20.37;58.88;101594.81;5099559;27;45452;-54
2022/08/20 07:13:23;;;;;;;;;6.75;3.00;;;;;21.01;57.40;101605.66;5099743;27;45326;-54
2022/08/20 07:15:49;;;;;;;;;8.00;4.75;;;;;21.63;56.28;101595.97;5099118;27;46081;-52
2022/08/20 07:18:14;;;;;;;;;2.25;2.25;;;;;22.41;54.01;101580.28;5098649;27;45388;-54
2022/08/20 07:20:40;;;;;;;;;6.75;3.50;;;;;23.81;50.20;101587.44;5099436;27;45249;-55
2022/08/20 07:23:07;;;;;;;;;6.00;4.00;;;;;24.95;48.59;101587.69;5099803;27;45215;-53
2022/08/20 07:25:33;;;;;;;;;8.00;3.25;;;;;25.91;46.01;101589.91;5099224;27;45489;-54
2022/08/20 07:28:04;;;;;;;;;3.00;3.00;;;;;26.75;44.20;101592.78;5099385;27;45206;-53
2022/08/20 07:33:14;;;;;;;;;7.80;3.20;;;;;27.81;41.54;101599.19;5099467;27;45293;-54
2022/08/20 07:35:40;;;;;;;;;5.50;3.00;;;;;28.58;40.49;101599.66;5099133;27;45305;-54
2022/08/20 07:38:06;;;;;;;;;3.80;3.20;;;;;29.21;39.78;101608.72;5098916;27;45329;-53
2022/08/20 07:40:34;;;;;;;;;5.60;3.00;;;;;29.46;39.20;101602.78;5099279;27;45323;-52
2022/08/20 07:43:01;;;;;;;;;4.00;2.40;;;;;29.64;39.02;101600.88;5099465;27;45362;-52
2022/08/20 07:45:28;;;;;;;;;4.20;1.60;;;;;29.53;38.60;101603.41;5080338;27;46131;-52
2022/08/20 07:47:54;;;;;;;;;3.80;2.80;;;;;29.55;38.94;101601.25;5098942;27;45313;-53
2022/08/20 07:50:24;;;;;;;;;3.20;2.40;;;;;29.83;38.97;101610.44;5098981;27;45285;-53
2022/08/20 07:52:51;;;;;;;;;5.00;1.60;;;;;30.06;38.13;101601.97;5099309;27;45465;-53
2022/08/20 07:55:18;;;;;;;;;1.20;1.20;;;;;30.53;37.77;101608.81;5098734;27;47066;-53
2022/08/20 07:57:45;;;;;;;;;3.40;2.00;;;;;30.88;37.56;101610.25;5098731;27;45373;-54
2022/08/20 08:00:12;;;;;;;;;7.20;2.00;;;;;31.08;35.64;101617.84;5098656;27;45287;-53
2022/08/20 08:02:38;;;;;;;;;3.80;2.00;;;;;31.30;36.22;101600.16;5099020;27;45457;-52
2022/08/20 08:05:04;;;;;;;;;2.40;2.40;;;;;31.88;36.92;101616.75;5098641;27;47549;-53
2022/08/20 08:07:31;;;;;;;;;4.00;1.75;;;;;32.33;33.91;101615.28;5098716;27;45505;-54
2022/08/20 08:09:56;;;;;;;;;3.20;3.20;;;;;32.77;34.57;101610.13;5098725;27;45345;-54
2022/08/20 08:12:25;;;;;;;;;3.50;2.00;;;;;33.13;33.87;101612.09;5098731;27;45378;-54
2022/08/20 08:14:51;;;;;;;;;4.20;3.80;;;;;33.55;33.36;101605.44;5098255;27;46072;-53
2022/08/20 08:17:18;;;;;;;;;2.75;1.00;;;;;33.99;32.50;101600.88;5098637;27;45371;-54
2022/08/20 08:19:48;;;;;;;;;1.40;1.40;;;;;34.54;32.38;101608.31;5098513;27;45378;-54
2022/08/20 08:22:17;;;;;;;;;2.80;2.40;;;;;35.65;30.86;101603.75;5098679;27;45459;-53
2022/08/20 08:24:45;;;;;;;;;5.00;2.00;;;;;37.48;27.16;101609.59;5098399;27;46112;-54
2022/08/20 08:27:17;;;;;;;;;1.00;1.00;;;;;39.36;23.94;101608.03;5098350;27;45394;-55
2022/08/20 08:29:44;;;;;;;;;2.40;2.40;;;;;40.78;23.60;101607.63;5098421;27;45535;-55
2022/08/20 08:32:09;;;;;;;;;1.80;1.80;;;;;41.93;21.70;101618.06;5098251;27;45177;-54
2022/08/20 08:34:36;;;;;;;;;1.50;1.25;;;;;43.12;20.36;101619.38;5097580;27;46173;-54
2022/08/20 08:37:03;;;;;;;;;3.20;2.40;;;;;44.02;19.93;101611.94;5097915;27;45409;-54
2022/08/20 08:39:30;;;;;;;;;0.80;0.20;;;;;44.74;20.52;101623.28;5098305;27;45275;-53
2022/08/20 08:41:58;;;;;;;;;5.20;2.00;;;;;45.19;18.26;101603.25;5098274;27;45157;-54
2022/08/20 08:44:34;;;;;;;;;1.60;1.60;;;;;46.16;18.01;101619.63;5097930;27;46227;-55
2022/08/20 08:47:12;;;;;;;;;1.00;1.00;;;;;46.92;17.52;101611.53;5097970;27;45200;-55
2022/08/20 08:49:38;;;;;;;;;1.00;0.80;;;;;47.03;15.91;101592.84;5079782;27;45432;-54
2022/08/20 08:52:21;;;;;;;;;3.40;1.20;;;;;44.66;18.92;101610.22;5099417;27;45652;-54
2022/08/20 08:54:51;;;;;;;;;1.20;0.60;;;;;46.00;17.33;101612.03;5098454;27;45458;-52
2022/08/20 08:57:17;;;;;;;;;1.40;1.40;;;;;47.15;16.42;101612.34;5098464;27;45307;-54
2022/08/20 08:59:47;;;;;;;;;2.00;1.60;;;;;48.20;15.09;101615.56;5098394;27;45439;-55
2022/08/20 09:02:21;;;;;;;;;3.00;1.00;;;;;49.14;14.37;101613.44;5098363;27;45335;-54
2022/08/20 09:04:50;;;;;;;;;2.40;2.00;;;;;49.87;14.50;101615.59;5096240;27;45661;-54
2022/08/20 09:07:16;;;;;;;;;4.40;1.00;;;;;50.17;13.67;101618.19;5097653;27;45364;-53
2022/08/20 09:09:45;;;;;;;;;1.60;0.60;;;;;50.55;13.76;101618.72;5097856;27;45289;-54
2022/08/20 09:12:19;;;;;;;;;3.40;1.00;;;;;51.04;13.72;101614.38;5097801;27;45335;-55
2022/08/20 09:14:50;;;;;;;;;1.60;1.60;;;;;51.52;11.57;101616.75;5097540;27;45478;-58
2022/08/20 09:17:18;;;;;;;;;3.40;0.40;;;;;51.86;11.40;101609.41;5097696;27;45378;-55
2022/08/20 09:19:44;;;;;;;;;2.80;1.80;;;;;49.90;13.92;101612.78;5097595;27;45412;-54
2022/08/20 09:22:12;;;;;;;;;3.20;1.00;;;;;49.78;14.32;101612.28;5097668;27;45359;-54
2022/08/20 09:24:39;;;;;;;;;3.00;2.60;;;;;49.24;13.40;101609.06;5097556;27;45398;-54
2022/08/20 09:27:05;;;;;;;;;5.20;2.40;;;;;47.40;15.29;101614.78;5097506;27;45400;-54
2022/08/20 09:29:31;;;;;;;;;2.60;1.40;;;;;46.61;15.57;101618.16;5097563;27;45369;-54
2022/08/20 09:32:29;;;;;;;;;3.00;1.80;;;;;45.47;16.94;101607.97;5097662;27;45421;-54
2022/08/20 09:34:55;;;;;;;;;3.20;0.80;;;;;46.05;15.99;101608.13;5034388;28;46279;-54
2022/08/20 09:37:22;;;;;;;;;1.80;1.80;;;;;47.46;15.26;101597.19;5033612;28;45509;-54
2022/08/20 09:39:48;;;;;;;;;2.20;2.20;;;;;48.60;13.98;101595.13;5034217;28;45433;-54
2022/08/20 09:42:17;;;;;;;;;5.00;1.50;;;;;49.29;13.53;101597.38;5034235;28;45554;-55
2022/08/20 09:44:44;;;;;;;;;4.00;2.40;;;;;50.00;13.25;101602.72;5034398;28;45424;-55
2022/08/20 09:47:10;;;;;;;;;4.80;4.00;;;;;50.66;11.98;101605.41;5037868;28;45375;-53
2022/08/20 09:49:39;;;;;;;;;1.60;1.40;;;;;51.41;13.31;101605.44;5037816;28;45539;-55
2022/08/20 09:52:07;;;;;;;;;0.20;0.20;;;;;52.02;12.18;101599.63;5037802;28;45397;-54
2022/08/20 09:54:34;;;;;;;;;3.00;3.00;;;;;52.27;11.90;101597.50;5037572;28;45419;-53
2022/08/20 09:57:04;;;;;;;;;2.80;2.80;;;;;52.49;11.19;101594.53;5037338;28;45361;-53
2022/08/20 09:59:32;;;;;;;;;2.00;2.00;;;;;53.04;11.52;101600.25;5037472;28;45402;-53
2022/08/20 10:01:57;;;;;;;;;2.20;2.20;;;;;53.40;11.59;101585.72;5037487;28;45455;-54
2022/08/20 10:04:23;;;;;;;;;1.25;1.25;;;;;53.46;10.28;101591.75;5037000;28;46521;-53
2022/08/20 10:06:49;;;;;;;;;1.75;1.00;;;;;53.70;11.01;101589.88;5054016;28;45436;-54
2022/08/20 10:09:15;;;;;;;;;4.50;1.25;;;;;53.84;9.85;101590.50;5020779;28;45390;-54
2022/08/20 10:11:41;;;;;;;;;5.40;2.40;;;;;51.93;11.57;101594.41;5099688;27;45478;-53
2022/08/20 10:14:08;;;;;;;;;0.75;0.75;;;;;49.28;12.89;101586.47;5100477;27;45370;-56
2022/08/20 10:16:34;;;;;;;;;7.60;1.40;;;;;45.93;15.49;101585.75;5100032;27;45408;-54
2022/08/20 10:19:01;;;;;;;;;2.20;0.80;;;;;45.74;15.29;101581.72;5100528;27;45326;-54
2022/08/20 10:21:26;;;;;;;;;2.60;2.60;;;;;43.49;16.92;101572.63;5099392;27;45446;-56
2022/08/20 10:23:52;;;;;;;;;1.75;1.75;;;;;41.34;18.28;101586.16;5099507;27;46079;-55
2022/08/20 10:26:18;;;;;;;;;5.00;2.50;;;;;39.42;19.94;101581.66;5100354;27;45171;-53
2022/08/20 10:28:43;;;;;;;;;4.00;2.75;;;;;37.87;21.48;101586.88;5100233;27;45656;-53
2022/08/20 10:31:11;;;;;;;;;2.00;2.00;;;;;37.98;21.39;101582.75;5099967;27;45422;-54
2022/08/20 10:33:38;;;;;;;;;3.40;1.80;;;;;41.11;18.44;101577.19;5099971;27;46013;-53
2022/08/20 10:36:08;;;;;;;;;2.00;0.00;;;;;43.41;16.97;101569.94;5099647;27;45325;-53
2022/08/20 10:38:34;;;;;;;;;4.60;0.80;;;;;44.99;15.13;101577.03;5099807;27;45229;-54
2022/08/20 10:40:59;;;;;;;;;1.50;1.50;;;;;46.41;14.07;101575.16;5081904;27;45570;-53
2022/08/20 10:43:25;;;;;;;;;0.50;0.50;;;;;47.53;13.27;101570.28;5099707;27;45971;-54
2022/08/20 10:45:51;;;;;;;;;4.00;3.00;;;;;47.77;13.69;101569.88;5099662;27;45369;-53
2022/08/20 10:48:16;;;;;;;;;4.50;2.75;;;;;48.09;12.93;101566.69;5099851;27;45465;-54
2022/08/20 10:50:42;;;;;;;;;0.75;0.75;;;;;47.15;14.15;101569.28;5099995;27;45276;-54
2022/08/20 10:53:07;;;;;;;;;2.75;0.75;;;;;44.60;16.03;101572.34;5099640;27;45435;-54
2022/08/20 10:55:33;;;;;;;;;3.00;1.00;;;;;45.17;14.97;101557.84;5098754;27;45259;-54
2022/08/20 10:57:58;;;;;;;;;3.00;1.75;;;;;46.48;14.34;101578.91;5099814;27;45356;-54
2022/08/20 11:00:24;;;;;;;;;1.75;1.00;;;;;47.54;13.59;101563.44;5098659;27;45621;-54
2022/08/20 11:02:50;;;;;;;;;3.00;1.25;;;;;48.31;13.19;101562.09;5099466;27;46494;-54
2022/08/20 11:05:16;;;;;;;;;2.25;1.50;;;;;48.78;11.79;101566.25;5099585;27;45408;-55
2022/08/20 11:07:44;;;;;;;;;2.80;2.40;;;;;48.83;12.70;101565.91;5096683;27;45425;-54
2022/08/20 11:10:10;;;;;;;;;2.00;2.00;;;;;49.20;12.57;101563.00;5100154;27;45253;-53
2022/08/20 11:12:37;;;;;;;;;2.20;2.20;;;;;49.42;11.65;101564.75;5097977;27;47676;-54
2022/08/20 11:15:03;;;;;;;;;2.60;1.00;;;;;49.63;11.96;101566.13;5099422;27;45337;-53
2022/08/20 11:17:32;;;;;;;;;0.20;0.20;;;;;49.60;13.31;101555.59;5099354;27;45273;-55
2022/08/20 11:20:00;;;;;;;;;2.00;2.00;;;;;49.31;12.45;101563.91;5099663;27;45286;-54
2022/08/20 11:22:26;;;;;;;;;1.00;1.00;;;;;49.36;12.34;101560.69;5098778;27;45383;-54
2022/08/20 11:24:53;;;;;;;;;1.40;1.40;;;;;49.32;12.26;101567.53;5099321;27;45440;-54
2022/08/20 11:27:35;;;;;;;;;5.00;3.00;;;;;49.04;11.77;101557.59;5099455;27;45338;-54
2022/08/20 11:30:03;;;;;;;;;1.60;1.60;;;;;49.05;12.01;101559.22;5099522;27;45389;-53